createdAt,value
2019-01-21T00:02:25.764Z,96834.36
2019-01-21T00:05:13.738Z,96835.77
2019-01-21T00:10:42.235Z,96836.38
2019-01-21T00:13:10.958Z,96833.81
2019-01-21T00:15:39.765Z,96838.08
2019-01-21T00:18:08.515Z,96830.03
2019-01-21T00:20:56.385Z,96837.36
2019-01-21T00:23:25.094Z,96835.14
2019-01-21T00:26:12.990Z,96842.88
2019-01-21T00:29:00.845Z,96841.66
2019-01-21T00:31:48.726Z,96837.95
2019-01-21T00:34:36.666Z,96841.84
2019-01-21T00:37:05.374Z,96839.58
2019-01-21T00:39:53.197Z,96840.58
2019-01-21T00:42:41.042Z,96843.67
2019-01-21T00:51:18.374Z,96843.91
2019-01-21T00:54:06.198Z,96846.97
2019-01-21T00:56:54.024Z,96845.82
2019-01-21T00:59:22.734Z,96850.80
2019-01-21T01:01:51.392Z,96848.77
2019-01-21T01:04:20.077Z,96853.39
2019-01-21T01:07:08.040Z,96855.59
2019-01-21T01:09:56.010Z,96854.86
2019-01-21T01:15:52.143Z,96862.25
2019-01-21T01:18:20.848Z,96860.66
2019-01-21T01:20:49.843Z,96863.16
2019-01-21T01:23:18.570Z,96862.43
2019-01-21T01:26:06.408Z,96861.11
2019-01-21T01:28:54.295Z,96873.05
2019-01-21T01:31:42.121Z,96874.67
2019-01-21T01:34:30.039Z,96875.13
2019-01-21T01:36:58.729Z,96876.98
2019-01-21T01:39:27.546Z,96870.92
2019-01-21T01:42:15.393Z,96876.84
2019-01-21T01:45:03.314Z,96872.80
2019-01-21T01:47:51.353Z,96882.11
2019-01-21T01:50:40.178Z,96876.94
2019-01-21T01:53:11.116Z,96874.14
2019-01-21T01:55:59.070Z,96872.58
2019-01-21T01:58:27.785Z,96874.94
2019-01-21T02:01:15.698Z,96878.70
2019-01-21T02:03:46.154Z,96881.73
2019-01-21T02:06:14.821Z,96875.91
2019-01-21T02:09:02.650Z,96870.34
2019-01-21T02:14:18.993Z,96880.33
2019-01-21T02:16:47.659Z,96878.94
2019-01-21T02:19:35.657Z,96879.78
2019-01-21T02:25:52.253Z,96882.19
2019-01-21T02:29:00.868Z,96880.52
2019-01-21T02:32:09.360Z,96878.16
2019-01-21T02:35:17.840Z,96881.28
2019-01-21T02:38:26.324Z,96883.61
2019-01-21T02:41:34.956Z,96883.35
2019-01-21T02:44:43.483Z,96878.53
2019-01-21T02:47:50.698Z,96884.22
2019-01-21T02:50:57.919Z,96888.20
2019-01-21T02:54:05.188Z,96887.39
2019-01-21T02:57:13.664Z,96878.79
2019-01-21T03:00:22.249Z,96873.06
2019-01-21T03:03:30.735Z,96881.48
2019-01-21T03:06:39.575Z,96872.07
2019-01-21T03:09:46.808Z,96870.86
2019-01-21T03:12:53.906Z,96870.37
2019-01-21T03:16:01.135Z,96877.66
2019-01-21T03:19:08.560Z,96874.83
2019-01-21T03:22:17.041Z,96875.20
2019-01-21T03:25:25.584Z,96873.19
2019-01-21T03:28:34.147Z,96879.07
2019-01-21T03:34:56.047Z,96871.00
2019-01-21T03:38:04.555Z,96873.26
2019-01-21T03:41:13.045Z,96881.18
2019-01-21T03:44:21.537Z,96873.03
2019-01-21T03:47:30.411Z,96870.71
2019-01-21T03:50:37.595Z,96869.27
2019-01-21T03:53:44.876Z,96876.50
2019-01-21T03:56:53.320Z,96876.23
2019-01-21T04:00:01.887Z,96864.54
2019-01-21T04:03:09.163Z,96866.28
2019-01-21T04:06:17.699Z,96865.48
2019-01-21T04:09:26.181Z,96869.93
2019-01-21T04:12:15.796Z,96869.22
2019-01-21T04:15:24.527Z,96867.14
2019-01-21T04:18:33.309Z,96868.22
2019-01-21T04:21:40.543Z,96860.72
2019-01-21T04:25:01.158Z,96869.66
2019-01-21T04:27:58.266Z,96867.05
2019-01-21T04:31:05.532Z,96874.24
2019-01-21T04:34:14.095Z,96874.67
2019-01-21T04:37:23.101Z,96870.48
2019-01-21T04:40:31.586Z,96880.74
2019-01-21T04:43:38.770Z,96881.97
2019-01-21T04:46:47.256Z,96876.95
2019-01-21T04:49:54.520Z,96883.87
2019-01-21T04:53:01.732Z,96876.86
2019-01-21T04:56:08.898Z,96876.81
2019-01-21T04:59:16.053Z,96884.39
2019-01-21T05:02:23.204Z,96883.77
2019-01-21T05:05:30.617Z,96880.61
2019-01-21T05:08:37.783Z,96880.61
2019-01-21T05:11:45.002Z,96882.20
2019-01-21T05:14:52.188Z,96882.20
2019-01-21T05:17:59.420Z,96880.48
2019-01-21T05:21:06.613Z,96871.91
2019-01-21T05:24:13.873Z,96877.25
2019-01-21T05:27:21.055Z,96877.25
2019-01-21T05:30:29.622Z,96884.16
2019-01-21T05:33:37.283Z,96884.16
2019-01-21T05:36:44.434Z,96884.16
2019-01-21T05:39:51.602Z,96886.52
2019-01-21T05:42:58.729Z,96888.69
2019-01-21T05:46:07.275Z,96893.70
2019-01-21T05:49:14.419Z,96899.52
2019-01-21T05:52:21.693Z,96894.81
2019-01-21T05:55:29.057Z,96899.19
2019-01-21T05:58:36.312Z,96901.06
2019-01-21T06:01:43.497Z,96907.97
2019-01-21T06:04:52.036Z,96902.33
2019-01-21T06:08:00.526Z,96911.27
2019-01-21T06:11:09.020Z,96914.37
2019-01-21T06:14:17.504Z,96907.33
2019-01-21T06:17:25.954Z,96910.00
2019-01-21T06:20:33.185Z,96911.25
2019-01-21T06:23:41.695Z,96923.95
2019-01-21T06:26:48.911Z,96923.31
2019-01-21T06:29:56.231Z,96920.50
2019-01-21T06:33:04.368Z,96920.50
2019-01-21T06:36:13.665Z,96928.17
2019-01-21T06:39:22.109Z,96928.17
2019-01-21T06:42:30.587Z,96922.38
2019-01-21T06:45:37.824Z,96925.35
2019-01-21T06:48:45.012Z,96931.00
2019-01-21T06:51:52.299Z,96938.51
2019-01-21T06:54:59.470Z,96948.84
2019-01-21T06:58:06.702Z,96942.41
2019-01-21T07:01:13.891Z,96946.48
2019-01-21T07:04:21.111Z,96940.83
2019-01-21T07:07:28.301Z,96948.66
2019-01-21T07:10:36.786Z,96951.77
2019-01-21T07:13:43.930Z,96953.33
2019-01-21T07:16:52.390Z,96958.34
2019-01-21T07:19:59.579Z,96951.34
2019-01-21T07:23:08.074Z,96957.14
2019-01-21T07:26:15.239Z,96956.62
2019-01-21T07:29:23.677Z,96956.66
2019-01-21T07:32:30.902Z,96959.02
2019-01-21T07:35:38.103Z,96963.42
2019-01-21T07:38:45.280Z,96960.61
2019-01-21T07:41:34.585Z,96971.55
2019-01-21T07:44:23.990Z,96962.48
2019-01-21T07:47:13.369Z,96967.81
2019-01-21T07:50:20.526Z,96975.02
2019-01-21T07:53:27.722Z,96967.82
2019-01-21T07:56:35.019Z,96974.08
2019-01-21T07:59:43.476Z,96974.08
2019-01-21T08:02:50.666Z,96978.34
2019-01-21T08:05:59.134Z,96983.19
2019-01-21T08:09:07.628Z,96982.87
2019-01-21T08:12:16.102Z,96982.87
2019-01-21T08:15:26.275Z,96990.09
2019-01-21T08:18:33.559Z,96987.25
2019-01-21T08:21:42.106Z,96989.47
2019-01-21T08:24:50.605Z,96991.16
2019-01-21T08:27:59.172Z,96991.16
2019-01-21T08:31:07.718Z,96998.33
2019-01-21T08:34:14.984Z,96998.33
2019-01-21T08:37:04.432Z,97001.93
2019-01-21T08:40:12.928Z,97002.84
2019-01-21T08:43:20.147Z,97002.05
2019-01-21T08:46:27.362Z,97008.59
2019-01-21T08:49:34.599Z,97005.73
2019-01-21T08:52:43.086Z,97011.27
2019-01-21T08:55:51.570Z,97002.41
2019-01-21T08:58:58.764Z,97002.71
2019-01-21T09:02:07.286Z,97001.58
2019-01-21T09:05:15.822Z,97007.19
2019-01-21T09:08:24.359Z,97003.55
2019-01-21T09:11:31.549Z,97000.47
2019-01-21T09:14:40.134Z,97003.67
2019-01-21T09:17:47.352Z,97007.25
2019-01-21T09:20:54.506Z,97011.73
2019-01-21T09:24:01.709Z,97003.11
2019-01-21T09:27:08.932Z,97000.03
2019-01-21T09:30:16.170Z,97002.75
2019-01-21T09:33:23.406Z,97013.97
2019-01-21T09:36:31.890Z,97012.49
2019-01-21T09:39:39.093Z,97009.67
2019-01-21T09:42:46.271Z,97018.78
2019-01-21T09:45:53.455Z,97022.06
2019-01-21T09:48:40.825Z,97013.59
2019-01-21T09:51:49.263Z,97016.20
2019-01-21T09:54:57.762Z,97017.94
2019-01-21T09:58:06.257Z,97018.47
2019-01-21T10:04:02.405Z,97017.08
2019-01-21T10:07:10.834Z,97015.77
2019-01-21T10:10:19.400Z,97015.59
2019-01-21T10:13:26.581Z,97016.63
2019-01-21T10:16:35.059Z,97018.73
2019-01-21T10:19:42.286Z,97008.62
2019-01-21T10:22:50.838Z,97007.66
2019-01-21T10:25:58.013Z,97002.23
2019-01-21T10:29:05.238Z,97001.33
2019-01-21T10:32:12.441Z,97001.38
2019-01-21T10:35:20.878Z,96995.81
2019-01-21T10:38:28.113Z,97006.55
2019-01-21T10:41:35.264Z,97003.00
2019-01-21T10:44:42.475Z,96997.94
2019-01-21T10:47:50.976Z,96997.08
2019-01-21T10:50:59.458Z,96997.52
2019-01-21T10:54:06.640Z,96992.53
2019-01-21T10:57:15.084Z,96994.46
2019-01-21T11:00:23.776Z,96997.51
2019-01-21T11:03:30.966Z,96994.95
2019-01-21T11:06:38.181Z,96991.08
2019-01-21T11:09:45.341Z,96988.98
2019-01-21T11:12:52.551Z,96986.48
2019-01-21T11:16:01.169Z,96987.90
2019-01-21T11:19:08.330Z,96985.20
2019-01-21T11:22:16.779Z,96978.29
2019-01-21T11:25:25.269Z,96977.33
2019-01-21T11:28:33.749Z,96973.62
2019-01-21T11:31:42.237Z,96975.59
2019-01-21T11:34:49.510Z,96974.46
2019-01-21T11:37:56.767Z,96969.20
2019-01-21T11:41:05.255Z,96979.28
2019-01-21T11:44:12.407Z,96969.34
2019-01-21T11:47:20.911Z,96966.38
2019-01-21T11:50:28.172Z,96968.08
2019-01-21T11:53:36.661Z,96962.59
2019-01-21T11:56:43.883Z,96955.12
2019-01-21T11:59:51.012Z,96954.14
2019-01-21T12:02:58.241Z,96951.25
2019-01-21T12:06:06.727Z,96957.69
2019-01-21T12:09:15.228Z,96958.70
2019-01-21T12:12:23.688Z,96949.22
2019-01-21T12:15:30.845Z,96946.70
2019-01-21T12:18:39.329Z,96945.41
2019-01-21T12:21:46.496Z,96943.02
2019-01-21T12:24:54.966Z,96937.84
2019-01-21T12:28:02.151Z,96936.14
2019-01-21T12:31:10.637Z,96937.13
2019-01-21T12:34:19.077Z,96936.80
2019-01-21T12:37:27.563Z,96942.27
2019-01-21T12:40:36.041Z,96939.27
2019-01-21T12:43:43.229Z,96942.13
2019-01-21T12:46:51.715Z,96938.01
2019-01-21T12:50:00.217Z,96936.37
2019-01-21T12:53:07.400Z,96938.50
2019-01-21T12:56:15.842Z,96937.51
2019-01-21T12:59:24.368Z,96928.98
2019-01-21T13:02:32.891Z,96928.19
2019-01-21T13:05:40.082Z,96932.19
2019-01-21T13:08:48.532Z,96922.20
2019-01-21T13:11:57.015Z,96920.91
2019-01-21T13:15:05.435Z,96921.91
2019-01-21T13:18:13.934Z,96918.23
2019-01-21T13:21:22.421Z,96924.58
2019-01-21T13:24:30.862Z,96916.94
2019-01-21T13:27:38.111Z,96916.99
2019-01-21T13:33:50.828Z,96915.77
2019-01-21T13:39:58.550Z,96912.12
2019-01-21T13:43:06.989Z,96910.45
2019-01-21T13:46:15.484Z,96913.27
2019-01-21T13:49:23.930Z,96910.45
2019-01-21T13:52:31.150Z,96910.04
2019-01-21T13:55:39.599Z,96914.48
2019-01-21T13:58:48.077Z,96914.55
2019-01-21T14:01:56.564Z,96908.61
2019-01-21T14:05:05.048Z,96906.53
2019-01-21T14:08:12.363Z,96904.82
2019-01-21T14:11:20.797Z,96906.73
2019-01-21T14:14:29.267Z,96903.09
2019-01-21T14:17:36.387Z,96911.17
2019-01-21T14:20:44.919Z,96910.31
2019-01-21T14:23:53.557Z,96910.95
2019-01-21T14:27:00.738Z,96904.65
2019-01-21T14:30:08.032Z,96901.82
2019-01-21T14:33:16.475Z,96904.28
2019-01-21T14:36:23.711Z,96899.87
2019-01-21T14:39:32.297Z,96900.15
2019-01-21T14:42:40.774Z,96896.77
2019-01-21T14:45:49.320Z,96901.18
2019-01-21T14:49:04.451Z,96899.86
2019-01-21T14:52:08.007Z,96898.86
2019-01-21T14:55:15.175Z,96895.17
2019-01-21T14:58:23.168Z,96897.38
2019-01-21T15:01:31.663Z,96900.20
2019-01-21T15:04:40.226Z,96898.18
2019-01-21T15:07:48.774Z,96888.69
2019-01-21T15:10:56.057Z,96888.71
2019-01-21T15:14:03.287Z,96885.50
2019-01-21T15:17:11.784Z,96886.19
2019-01-21T15:20:20.356Z,96889.13
2019-01-21T15:23:27.684Z,96884.88
2019-01-21T15:26:36.178Z,96875.42
2019-01-21T15:29:43.444Z,96880.00
2019-01-21T15:32:50.711Z,96874.11
2019-01-21T15:35:57.939Z,96871.00
2019-01-21T15:39:06.392Z,96877.81
2019-01-21T15:42:13.706Z,96873.22
2019-01-21T15:45:22.363Z,96871.84
2019-01-21T15:48:31.105Z,96862.53
2019-01-21T15:51:39.651Z,96872.92
2019-01-21T15:54:46.811Z,96876.71
2019-01-21T15:57:55.317Z,96882.25
2019-01-21T16:01:02.617Z,96885.55
2019-01-21T16:03:52.071Z,96880.11
2019-01-21T16:06:59.191Z,96874.64
2019-01-21T16:10:06.435Z,96872.36
2019-01-21T16:13:15.020Z,96872.34
2019-01-21T16:16:22.242Z,96872.83
2019-01-21T16:19:30.727Z,96878.50
2019-01-21T16:22:37.946Z,96877.05
2019-01-21T16:25:27.357Z,96874.53
2019-01-21T16:28:34.512Z,96873.93
2019-01-21T16:31:42.998Z,96872.90
2019-01-21T16:34:50.194Z,96871.03
2019-01-21T16:37:57.350Z,96875.83
2019-01-21T16:41:05.853Z,96871.64
2019-01-21T16:43:53.795Z,96872.09
2019-01-21T16:46:41.774Z,96870.41
2019-01-21T16:49:29.718Z,96872.78
2019-01-21T16:52:17.685Z,96874.14
2019-01-21T16:55:05.684Z,96877.53
2019-01-21T16:57:53.668Z,96874.53
2019-01-21T17:00:41.476Z,96874.88
2019-01-21T17:03:29.430Z,96877.94
2019-01-21T17:06:17.217Z,96880.39
2019-01-21T17:11:53.079Z,96873.63
2019-01-21T17:14:41.128Z,96879.62
2019-01-21T17:17:29.099Z,96884.47
2019-01-21T17:20:17.120Z,96884.11
2019-01-21T17:23:05.083Z,96883.29
2019-01-21T17:25:52.936Z,96887.34
2019-01-21T17:28:40.903Z,96887.94
2019-01-21T17:36:51.048Z,96875.78
2019-01-21T17:39:38.891Z,96872.97
2019-01-21T17:45:00.566Z,96877.81
2019-01-21T17:47:29.254Z,96873.80
2019-01-21T17:49:57.921Z,96874.95
2019-01-21T17:52:26.645Z,96873.69
2019-01-21T17:55:14.604Z,96871.77
2019-01-21T17:58:02.545Z,96877.34
2019-01-21T18:00:50.328Z,96886.72
2019-01-21T18:03:19.240Z,96882.39
2019-01-21T18:08:54.912Z,96890.16
2019-01-21T18:11:42.871Z,96896.85
2019-01-21T18:14:53.002Z,96899.17
2019-01-21T18:23:22.174Z,96896.27
2019-01-21T18:26:10.168Z,96891.82
2019-01-21T18:28:58.058Z,96887.14
2019-01-21T18:31:45.955Z,96888.86
2019-01-21T18:34:33.796Z,96886.25
2019-01-21T18:37:21.693Z,96887.38
2019-01-21T18:40:30.140Z,96885.31
2019-01-21T18:43:18.179Z,96881.77
2019-01-21T18:46:06.117Z,96877.89
2019-01-21T18:48:54.014Z,96869.89
2019-01-21T18:51:46.684Z,96869.89
2019-01-21T18:54:31.522Z,96872.25
2019-01-21T18:57:19.496Z,96866.25
2019-01-21T19:00:07.288Z,96873.24
2019-01-21T19:05:35.281Z,96868.79
2019-01-21T19:11:18.036Z,96869.33
2019-01-21T19:14:05.979Z,96866.77
2019-01-21T19:16:34.644Z,96877.81
2019-01-21T19:19:03.429Z,96866.05
2019-01-21T19:21:32.112Z,96870.98
2019-01-21T19:24:19.961Z,96876.26
2019-01-21T19:27:07.883Z,96880.40
2019-01-21T19:29:55.783Z,96873.47
2019-01-21T19:32:43.699Z,96865.88
2019-01-21T19:35:52.181Z,96865.34
2019-01-21T19:38:40.031Z,96880.20
2019-01-21T19:41:27.854Z,96873.14
2019-01-21T19:46:30.877Z,96879.91
2019-01-21T19:51:47.370Z,96885.92
2019-01-21T19:54:35.150Z,96879.41
2019-01-21T19:57:03.867Z,96886.67
2019-01-21T20:02:40.709Z,96883.75
2019-01-21T20:08:10.103Z,96873.28
2019-01-21T20:10:38.825Z,96870.39
2019-01-21T20:13:26.811Z,96865.36
2019-01-21T20:16:14.765Z,96864.29
2019-01-21T20:19:02.590Z,96866.94
2019-01-21T20:21:31.290Z,96857.88
2019-01-21T20:24:19.262Z,96852.45
2019-01-21T20:29:41.861Z,96859.28
2019-01-21T20:32:29.713Z,96859.74
2019-01-21T20:35:17.663Z,96852.25
2019-01-21T20:38:05.627Z,96849.89
2019-01-21T20:40:53.462Z,96854.73
2019-01-21T20:43:41.432Z,96852.44
2019-01-21T20:49:16.909Z,96849.75
2019-01-21T20:52:04.845Z,96854.66
2019-01-21T20:54:52.707Z,96858.13
2019-01-21T20:57:21.342Z,96855.89
2019-01-21T20:59:50.118Z,96855.45
2019-01-21T21:02:18.834Z,96861.75
2019-01-21T21:05:06.674Z,96854.50
2019-01-21T21:07:54.472Z,96852.28
2019-01-21T21:13:37.097Z,96855.45
2019-01-21T21:16:05.783Z,96849.33
2019-01-21T21:18:53.761Z,96855.52
2019-01-21T21:21:22.413Z,96853.33
2019-01-21T21:24:10.393Z,96857.81
2019-01-21T21:26:58.318Z,96855.23
2019-01-21T21:29:46.287Z,96849.58
2019-01-21T21:32:34.211Z,96851.38
2019-01-21T21:35:02.908Z,96855.32
2019-01-21T21:37:50.827Z,96856.58
2019-01-21T21:40:38.985Z,96846.20
2019-01-21T21:43:26.982Z,96842.48
2019-01-21T21:46:14.890Z,96841.83
2019-01-21T21:49:24.684Z,96847.22
2019-01-21T21:51:53.776Z,96841.75
2019-01-21T21:57:29.614Z,96849.88
2019-01-21T22:00:17.446Z,96842.71
2019-01-21T22:03:05.273Z,96843.83
2019-01-21T22:05:53.216Z,96829.30
2019-01-21T22:08:41.258Z,96832.72
2019-01-21T22:11:29.201Z,96826.81
2019-01-21T22:13:59.634Z,96818.36
2019-01-21T22:16:28.300Z,96818.66
2019-01-21T22:19:16.185Z,96831.84
2019-01-21T22:22:04.030Z,96828.06
2019-01-21T22:24:52.121Z,96826.51
2019-01-21T22:27:40.071Z,96829.98
2019-01-21T22:30:48.517Z,96821.31
2019-01-21T22:33:38.210Z,96817.17
2019-01-21T22:36:26.163Z,96821.53
2019-01-21T22:39:14.066Z,96818.88
2019-01-21T22:44:49.824Z,96820.44
2019-01-21T22:47:37.724Z,96815.84
2019-01-21T22:50:46.212Z,96804.34
2019-01-21T22:53:34.188Z,96803.77
2019-01-21T22:56:22.062Z,96807.71
2019-01-21T23:04:39.138Z,96804.30
2019-01-21T23:07:27.103Z,96803.00
2019-01-21T23:10:15.074Z,96806.50
2019-01-21T23:12:43.807Z,96801.52
2019-01-21T23:15:12.726Z,96794.63
2019-01-21T23:18:04.294Z,96788.69
2019-01-21T23:20:50.250Z,96785.24
2019-01-21T23:23:38.076Z,96783.59
2019-01-21T23:26:25.874Z,96775.31
2019-01-21T23:29:13.914Z,96775.88
2019-01-21T23:32:01.758Z,96765.72
2019-01-21T23:34:51.314Z,96767.14
2019-01-21T23:37:39.184Z,96755.73
2019-01-21T23:40:49.390Z,96757.15
2019-01-21T23:43:18.096Z,96759.55
2019-01-21T23:46:05.957Z,96749.70
2019-01-21T23:48:53.854Z,96749.66
2019-01-21T23:51:41.758Z,96744.33
2019-01-21T23:54:29.538Z,96733.23
2019-01-21T23:57:17.510Z,96733.13
